sensor_id;sensor_type;location;lat;lon;timestamp;P1;durP1;ratioP1;P2;durP2;ratioP2
36211;SDS011;22247;48.586;13.492;2023-11-21T00:01:58;108.63;;;8.55;;
36211;SDS011;22247;48.586;13.492;2023-11-21T00:04:24;37.60;;;6.28;;
36211;SDS011;22247;48.586;13.492;2023-11-21T00:06:49;32.50;;;5.75;;
36211;SDS011;22247;48.586;13.492;2023-11-21T00:09:14;9.07;;;4.75;;
36211;SDS011;22247;48.586;13.492;2023-11-21T00:11:39;53.72;;;6.20;;
36211;SDS011;22247;48.586;13.492;2023-11-21T00:14:04;47.75;;;6.25;;
36211;SDS011;22247;48.586;13.492;2023-11-21T00:18:54;132.15;;;8.27;;
36211;SDS011;22247;48.586;13.492;2023-11-21T00:21:19;20.60;;;4.75;;
36211;SDS011;22247;48.586;13.492;2023-11-21T00:23:44;12.18;;;4.75;;
36211;SDS011;22247;48.586;13.492;2023-11-21T00:26:09;9.73;;;5.00;;
36211;SDS011;22247;48.586;13.492;2023-11-21T00:28:34;10.43;;;4.50;;
36211;SDS011;22247;48.586;13.492;2023-11-21T00:31:00;10.65;;;4.63;;
36211;SDS011;22247;48.586;13.492;2023-11-21T00:35:51;8.63;;;4.55;;
36211;SDS011;22247;48.586;13.492;2023-11-21T00:38:16;17.40;;;4.78;;
36211;SDS011;22247;48.586;13.492;2023-11-21T00:40:44;7.82;;;4.22;;
36211;SDS011;22247;48.586;13.492;2023-11-21T00:43:09;11.40;;;4.95;;
36211;SDS011;22247;48.586;13.492;2023-11-21T00:45:34;8.23;;;4.07;;
36211;SDS011;22247;48.586;13.492;2023-11-21T00:48:03;7.43;;;3.88;;
36211;SDS011;22247;48.586;13.492;2023-11-21T00:50:32;9.27;;;4.30;;
36211;SDS011;22247;48.586;13.492;2023-11-21T00:55:22;8.00;;;4.20;;
36211;SDS011;22247;48.586;13.492;2023-11-21T01:00:12;10.15;;;4.07;;
36211;SDS011;22247;48.586;13.492;2023-11-21T01:02:41;11.05;;;4.97;;
36211;SDS011;22247;48.586;13.492;2023-11-21T01:05:07;16.67;;;5.30;;
36211;SDS011;22247;48.586;13.492;2023-11-21T01:09:57;32.88;;;6.18;;
36211;SDS011;22247;48.586;13.492;2023-11-21T01:12:22;54.35;;;8.80;;
36211;SDS011;22247;48.586;13.492;2023-11-21T01:14:49;22.25;;;6.25;;
36211;SDS011;22247;48.586;13.492;2023-11-21T01:17:14;15.10;;;5.70;;
36211;SDS011;22247;48.586;13.492;2023-11-21T01:19:40;15.88;;;5.55;;
36211;SDS011;22247;48.586;13.492;2023-11-21T01:22:05;13.98;;;5.57;;
36211;SDS011;22247;48.586;13.492;2023-11-21T01:24:30;12.32;;;5.28;;
36211;SDS011;22247;48.586;13.492;2023-11-21T01:29:21;18.67;;;6.93;;
36211;SDS011;22247;48.586;13.492;2023-11-21T01:31:46;13.13;;;5.93;;
36211;SDS011;22247;48.586;13.492;2023-11-21T01:34:11;13.18;;;5.53;;
36211;SDS011;22247;48.586;13.492;2023-11-21T01:36:36;20.73;;;5.95;;
36211;SDS011;22247;48.586;13.492;2023-11-21T01:39:01;13.55;;;5.63;;
36211;SDS011;22247;48.586;13.492;2023-11-21T01:41:32;18.95;;;6.18;;
36211;SDS011;22247;48.586;13.492;2023-11-21T01:43:57;12.27;;;6.28;;
36211;SDS011;22247;48.586;13.492;2023-11-21T01:46:22;19.00;;;5.82;;
36211;SDS011;22247;48.586;13.492;2023-11-21T01:48:48;17.23;;;5.45;;
36211;SDS011;22247;48.586;13.492;2023-11-21T01:51:13;15.05;;;5.75;;
36211;SDS011;22247;48.586;13.492;2023-11-21T01:53:38;13.05;;;5.65;;
36211;SDS011;22247;48.586;13.492;2023-11-21T01:56:05;16.00;;;5.72;;
36211;SDS011;22247;48.586;13.492;2023-11-21T01:58:32;15.35;;;5.70;;
36211;SDS011;22247;48.586;13.492;2023-11-21T02:00:57;12.15;;;6.03;;
36211;SDS011;22247;48.586;13.492;2023-11-21T02:03:22;18.80;;;6.15;;
36211;SDS011;22247;48.586;13.492;2023-11-21T02:05:47;16.90;;;6.63;;
36211;SDS011;22247;48.586;13.492;2023-11-21T02:08:12;15.65;;;6.47;;
36211;SDS011;22247;48.586;13.492;2023-11-21T02:13:02;12.88;;;6.20;;
36211;SDS011;22247;48.586;13.492;2023-11-21T02:15:27;9.88;;;4.90;;
36211;SDS011;22247;48.586;13.492;2023-11-21T02:17:52;19.52;;;6.10;;
36211;SDS011;22247;48.586;13.492;2023-11-21T02:20:20;13.95;;;5.40;;
36211;SDS011;22247;48.586;13.492;2023-11-21T02:22:50;16.73;;;6.18;;
36211;SDS011;22247;48.586;13.492;2023-11-21T02:25:27;14.00;;;6.13;;
36211;SDS011;22247;48.586;13.492;2023-11-21T02:27:53;14.15;;;6.43;;
36211;SDS011;22247;48.586;13.492;2023-11-21T02:30:18;21.77;;;6.15;;
36211;SDS011;22247;48.586;13.492;2023-11-21T02:32:45;10.82;;;6.15;;
36211;SDS011;22247;48.586;13.492;2023-11-21T02:35:10;13.52;;;6.13;;
36211;SDS011;22247;48.586;13.492;2023-11-21T02:37:36;18.55;;;7.22;;
36211;SDS011;22247;48.586;13.492;2023-11-21T02:40:01;16.65;;;7.22;;
36211;SDS011;22247;48.586;13.492;2023-11-21T02:42:33;14.65;;;6.28;;
36211;SDS011;22247;48.586;13.492;2023-11-21T02:44:58;12.38;;;6.07;;
36211;SDS011;22247;48.586;13.492;2023-11-21T02:47:23;14.65;;;5.15;;
36211;SDS011;22247;48.586;13.492;2023-11-21T02:49:49;15.60;;;5.60;;
36211;SDS011;22247;48.586;13.492;2023-11-21T02:52:16;12.65;;;5.45;;
36211;SDS011;22247;48.586;13.492;2023-11-21T02:54:41;11.35;;;5.03;;
36211;SDS011;22247;48.586;13.492;2023-11-21T02:57:06;12.88;;;5.13;;
36211;SDS011;22247;48.586;13.492;2023-11-21T02:59:32;9.05;;;4.25;;
36211;SDS011;22247;48.586;13.492;2023-11-21T03:01:57;8.63;;;4.47;;
36211;SDS011;22247;48.586;13.492;2023-11-21T03:04:22;8.40;;;4.55;;
36211;SDS011;22247;48.586;13.492;2023-11-21T03:06:47;9.52;;;5.03;;
36211;SDS011;22247;48.586;13.492;2023-11-21T03:09:12;13.10;;;5.95;;
36211;SDS011;22247;48.586;13.492;2023-11-21T03:11:37;13.40;;;5.75;;
36211;SDS011;22247;48.586;13.492;2023-11-21T03:14:03;14.70;;;6.03;;
36211;SDS011;22247;48.586;13.492;2023-11-21T03:16:29;14.27;;;5.57;;
36211;SDS011;22247;48.586;13.492;2023-11-21T03:18:57;10.85;;;5.63;;
36211;SDS011;22247;48.586;13.492;2023-11-21T03:21:25;14.35;;;6.32;;
36211;SDS011;22247;48.586;13.492;2023-11-21T03:23:50;9.27;;;5.43;;
36211;SDS011;22247;48.586;13.492;2023-11-21T03:26:16;8.50;;;5.18;;
36211;SDS011;22247;48.586;13.492;2023-11-21T03:28:41;16.25;;;6.15;;
36211;SDS011;22247;48.586;13.492;2023-11-21T03:31:06;9.57;;;5.20;;
36211;SDS011;22247;48.586;13.492;2023-11-21T03:33:33;11.15;;;4.97;;
36211;SDS011;22247;48.586;13.492;2023-11-21T03:35:59;10.23;;;5.55;;
36211;SDS011;22247;48.586;13.492;2023-11-21T03:40:51;10.63;;;4.75;;
36211;SDS011;22247;48.586;13.492;2023-11-21T03:43:17;10.63;;;5.10;;
36211;SDS011;22247;48.586;13.492;2023-11-21T03:45:42;11.27;;;4.43;;
36211;SDS011;22247;48.586;13.492;2023-11-21T03:48:07;11.57;;;5.50;;
36211;SDS011;22247;48.586;13.492;2023-11-21T03:50:32;13.27;;;5.68;;
36211;SDS011;22247;48.586;13.492;2023-11-21T03:52:58;13.63;;;5.32;;
36211;SDS011;22247;48.586;13.492;2023-11-21T03:55:23;13.68;;;5.85;;
36211;SDS011;22247;48.586;13.492;2023-11-21T03:57:50;10.93;;;5.28;;
36211;SDS011;22247;48.586;13.492;2023-11-21T04:00:15;11.60;;;5.43;;
36211;SDS011;22247;48.586;13.492;2023-11-21T04:02:41;11.48;;;5.72;;
36211;SDS011;22247;48.586;13.492;2023-11-21T04:05:06;12.07;;;4.97;;
36211;SDS011;22247;48.586;13.492;2023-11-21T04:07:31;11.23;;;5.15;;
36211;SDS011;22247;48.586;13.492;2023-11-21T04:09:56;9.73;;;5.35;;
36211;SDS011;22247;48.586;13.492;2023-11-21T04:12:21;16.55;;;5.13;;
36211;SDS011;22247;48.586;13.492;2023-11-21T04:17:11;18.65;;;5.60;;
36211;SDS011;22247;48.586;13.492;2023-11-21T04:19:36;13.20;;;5.25;;
36211;SDS011;22247;48.586;13.492;2023-11-21T04:22:01;17.15;;;5.90;;
36211;SDS011;22247;48.586;13.492;2023-11-21T04:24:26;17.17;;;5.70;;
36211;SDS011;22247;48.586;13.492;2023-11-21T04:26:51;14.60;;;5.30;;
36211;SDS011;22247;48.586;13.492;2023-11-21T04:29:16;13.02;;;5.95;;
36211;SDS011;22247;48.586;13.492;2023-11-21T04:31:41;12.48;;;5.28;;
36211;SDS011;22247;48.586;13.492;2023-11-21T04:34:07;12.23;;;5.72;;
36211;SDS011;22247;48.586;13.492;2023-11-21T04:38:57;14.73;;;5.25;;
36211;SDS011;22247;48.586;13.492;2023-11-21T04:41:22;8.38;;;4.68;;
36211;SDS011;22247;48.586;13.492;2023-11-21T04:43:55;13.65;;;5.38;;
36211;SDS011;22247;48.586;13.492;2023-11-21T04:46:20;10.73;;;4.88;;
36211;SDS011;22247;48.586;13.492;2023-11-21T04:51:13;14.73;;;4.90;;
36211;SDS011;22247;48.586;13.492;2023-11-21T04:53:38;13.60;;;4.95;;
36211;SDS011;22247;48.586;13.492;2023-11-21T04:56:03;15.73;;;4.88;;
36211;SDS011;22247;48.586;13.492;2023-11-21T04:58:29;12.50;;;5.97;;
36211;SDS011;22247;48.586;13.492;2023-11-21T05:00:54;12.38;;;5.38;;
36211;SDS011;22247;48.586;13.492;2023-11-21T05:03:19;10.18;;;5.30;;
36211;SDS011;22247;48.586;13.492;2023-11-21T05:05:44;13.00;;;5.28;;
36211;SDS011;22247;48.586;13.492;2023-11-21T05:08:09;12.50;;;5.70;;
36211;SDS011;22247;48.586;13.492;2023-11-21T05:10:34;12.80;;;4.93;;
36211;SDS011;22247;48.586;13.492;2023-11-21T05:13:02;13.50;;;5.07;;
36211;SDS011;22247;48.586;13.492;2023-11-21T05:15:27;12.02;;;5.40;;
36211;SDS011;22247;48.586;13.492;2023-11-21T05:17:52;13.05;;;6.00;;
36211;SDS011;22247;48.586;13.492;2023-11-21T05:20:18;13.43;;;5.25;;
36211;SDS011;22247;48.586;13.492;2023-11-21T05:22:46;16.83;;;5.68;;
36211;SDS011;22247;48.586;13.492;2023-11-21T05:25:12;11.80;;;5.32;;
36211;SDS011;22247;48.586;13.492;2023-11-21T05:30:02;11.65;;;5.40;;
36211;SDS011;22247;48.586;13.492;2023-11-21T05:32:33;19.27;;;5.70;;
36211;SDS011;22247;48.586;13.492;2023-11-21T05:34:58;12.77;;;5.60;;
36211;SDS011;22247;48.586;13.492;2023-11-21T05:37:23;12.93;;;5.70;;
36211;SDS011;22247;48.586;13.492;2023-11-21T05:39:50;13.82;;;5.93;;
36211;SDS011;22247;48.586;13.492;2023-11-21T05:42:15;22.05;;;5.57;;
36211;SDS011;22247;48.586;13.492;2023-11-21T05:44:41;15.13;;;5.05;;
36211;SDS011;22247;48.586;13.492;2023-11-21T05:47:11;9.15;;;4.38;;
36211;SDS011;22247;48.586;13.492;2023-11-21T05:49:37;10.48;;;5.50;;
36211;SDS011;22247;48.586;13.492;2023-11-21T05:52:02;10.73;;;4.43;;
36211;SDS011;22247;48.586;13.492;2023-11-21T05:56:52;10.93;;;5.38;;
36211;SDS011;22247;48.586;13.492;2023-11-21T05:59:17;14.18;;;6.60;;
36211;SDS011;22247;48.586;13.492;2023-11-21T06:01:44;15.82;;;6.45;;
36211;SDS011;22247;48.586;13.492;2023-11-21T06:04:09;15.05;;;6.10;;
36211;SDS011;22247;48.586;13.492;2023-11-21T06:06:35;15.75;;;6.45;;
36211;SDS011;22247;48.586;13.492;2023-11-21T06:09:00;13.75;;;6.18;;
36211;SDS011;22247;48.586;13.492;2023-11-21T06:11:25;14.60;;;6.13;;
36211;SDS011;22247;48.586;13.492;2023-11-21T06:13:50;17.85;;;6.38;;
36211;SDS011;22247;48.586;13.492;2023-11-21T06:16:17;15.25;;;6.63;;
36211;SDS011;22247;48.586;13.492;2023-11-21T06:18:43;18.60;;;6.88;;
36211;SDS011;22247;48.586;13.492;2023-11-21T06:21:12;11.45;;;6.57;;
36211;SDS011;22247;48.586;13.492;2023-11-21T06:23:37;12.32;;;6.28;;
36211;SDS011;22247;48.586;13.492;2023-11-21T06:28:28;14.27;;;6.35;;
36211;SDS011;22247;48.586;13.492;2023-11-21T06:30:56;15.75;;;6.55;;
36211;SDS011;22247;48.586;13.492;2023-11-21T06:33:29;18.02;;;6.95;;
36211;SDS011;22247;48.586;13.492;2023-11-21T06:35:53;17.25;;;7.20;;
36211;SDS011;22247;48.586;13.492;2023-11-21T06:38:18;19.90;;;6.57;;
36211;SDS011;22247;48.586;13.492;2023-11-21T06:40:47;18.63;;;6.90;;
36211;SDS011;22247;48.586;13.492;2023-11-21T06:43:12;17.85;;;6.40;;
36211;SDS011;22247;48.586;13.492;2023-11-21T06:45:38;14.88;;;6.68;;
36211;SDS011;22247;48.586;13.492;2023-11-21T06:48:03;13.90;;;6.60;;
36211;SDS011;22247;48.586;13.492;2023-11-21T06:50:28;17.42;;;6.43;;
36211;SDS011;22247;48.586;13.492;2023-11-21T06:52:53;22.45;;;7.15;;
36211;SDS011;22247;48.586;13.492;2023-11-21T06:55:18;15.40;;;6.63;;
36211;SDS011;22247;48.586;13.492;2023-11-21T06:57:43;12.98;;;6.45;;
36211;SDS011;22247;48.586;13.492;2023-11-21T07:02:33;15.88;;;6.20;;
36211;SDS011;22247;48.586;13.492;2023-11-21T07:04:58;15.40;;;6.43;;
36211;SDS011;22247;48.586;13.492;2023-11-21T07:09:48;18.33;;;6.78;;
36211;SDS011;22247;48.586;13.492;2023-11-21T07:12:13;13.05;;;5.68;;
36211;SDS011;22247;48.586;13.492;2023-11-21T07:14:38;14.68;;;5.57;;
36211;SDS011;22247;48.586;13.492;2023-11-21T07:17:07;10.57;;;4.85;;
36211;SDS011;22247;48.586;13.492;2023-11-21T07:19:32;14.75;;;5.78;;
36211;SDS011;22247;48.586;13.492;2023-11-21T07:21:59;17.88;;;5.88;;
36211;SDS011;22247;48.586;13.492;2023-11-21T07:24:24;16.40;;;5.70;;
36211;SDS011;22247;48.586;13.492;2023-11-21T07:26:50;15.45;;;6.60;;
36211;SDS011;22247;48.586;13.492;2023-11-21T07:29:20;13.57;;;6.15;;
36211;SDS011;22247;48.586;13.492;2023-11-21T07:31:45;19.33;;;6.50;;
36211;SDS011;22247;48.586;13.492;2023-11-21T07:34:10;12.57;;;5.75;;
36211;SDS011;22247;48.586;13.492;2023-11-21T07:36:36;10.23;;;5.25;;
36211;SDS011;22247;48.586;13.492;2023-11-21T07:39:01;16.13;;;5.63;;
36211;SDS011;22247;48.586;13.492;2023-11-21T07:41:30;13.40;;;5.60;;
36211;SDS011;22247;48.586;13.492;2023-11-21T07:43:56;13.73;;;5.13;;
36211;SDS011;22247;48.586;13.492;2023-11-21T07:46:21;13.45;;;4.97;;
36211;SDS011;22247;48.586;13.492;2023-11-21T07:51:11;10.60;;;4.65;;
36211;SDS011;22247;48.586;13.492;2023-11-21T07:53:37;11.23;;;5.13;;
36211;SDS011;22247;48.586;13.492;2023-11-21T07:56:03;8.80;;;4.75;;
36211;SDS011;22247;48.586;13.492;2023-11-21T07:58:28;9.88;;;4.63;;
36211;SDS011;22247;48.586;13.492;2023-11-21T08:03:18;10.65;;;5.18;;
36211;SDS011;22247;48.586;13.492;2023-11-21T08:05:43;11.45;;;5.40;;
36211;SDS011;22247;48.586;13.492;2023-11-21T08:08:08;10.45;;;4.72;;
36211;SDS011;22247;48.586;13.492;2023-11-21T08:10:34;11.63;;;5.47;;
36211;SDS011;22247;48.586;13.492;2023-11-21T08:13:03;10.95;;;4.72;;
36211;SDS011;22247;48.586;13.492;2023-11-21T08:15:30;8.63;;;4.40;;
36211;SDS011;22247;48.586;13.492;2023-11-21T08:17:56;15.55;;;5.25;;
36211;SDS011;22247;48.586;13.492;2023-11-21T08:20:21;14.05;;;5.22;;
36211;SDS011;22247;48.586;13.492;2023-11-21T08:22:46;12.20;;;5.70;;
36211;SDS011;22247;48.586;13.492;2023-11-21T08:25:11;11.35;;;4.80;;
36211;SDS011;22247;48.586;13.492;2023-11-21T08:27:36;14.77;;;5.57;;
36211;SDS011;22247;48.586;13.492;2023-11-21T08:30:03;14.40;;;5.78;;
36211;SDS011;22247;48.586;13.492;2023-11-21T08:32:28;12.70;;;5.72;;
36211;SDS011;22247;48.586;13.492;2023-11-21T08:34:56;13.63;;;5.80;;
36211;SDS011;22247;48.586;13.492;2023-11-21T08:37:21;14.95;;;6.00;;
36211;SDS011;22247;48.586;13.492;2023-11-21T08:39:47;23.45;;;7.13;;
36211;SDS011;22247;48.586;13.492;2023-11-21T08:42:12;14.35;;;5.85;;
36211;SDS011;22247;48.586;13.492;2023-11-21T08:47:02;21.27;;;6.35;;
36211;SDS011;22247;48.586;13.492;2023-11-21T08:49:28;16.42;;;6.45;;
36211;SDS011;22247;48.586;13.492;2023-11-21T08:51:54;15.80;;;6.43;;
36211;SDS011;22247;48.586;13.492;2023-11-21T08:54:23;19.30;;;6.90;;
36211;SDS011;22247;48.586;13.492;2023-11-21T08:56:49;16.02;;;6.72;;
36211;SDS011;22247;48.586;13.492;2023-11-21T08:59:14;17.77;;;7.32;;
36211;SDS011;22247;48.586;13.492;2023-11-21T09:01:40;19.23;;;6.90;;
36211;SDS011;22247;48.586;13.492;2023-11-21T09:06:30;21.02;;;7.13;;
36211;SDS011;22247;48.586;13.492;2023-11-21T09:08:55;17.08;;;6.47;;
36211;SDS011;22247;48.586;13.492;2023-11-21T09:11:20;18.90;;;7.68;;
36211;SDS011;22247;48.586;13.492;2023-11-21T09:13:45;13.40;;;6.88;;
36211;SDS011;22247;48.586;13.492;2023-11-21T09:16:11;14.15;;;6.88;;
36211;SDS011;22247;48.586;13.492;2023-11-21T09:21:01;15.43;;;6.53;;
36211;SDS011;22247;48.586;13.492;2023-11-21T09:25:51;19.55;;;6.95;;
36211;SDS011;22247;48.586;13.492;2023-11-21T09:30:41;20.35;;;8.05;;
36211;SDS011;22247;48.586;13.492;2023-11-21T09:33:06;13.65;;;6.72;;
36211;SDS011;22247;48.586;13.492;2023-11-21T09:35:37;18.67;;;7.72;;
36211;SDS011;22247;48.586;13.492;2023-11-21T09:38:02;24.63;;;8.05;;
36211;SDS011;22247;48.586;13.492;2023-11-21T09:40:29;21.40;;;9.05;;
36211;SDS011;22247;48.586;13.492;2023-11-21T09:42:56;19.05;;;8.70;;
36211;SDS011;22247;48.586;13.492;2023-11-21T09:45:26;19.95;;;8.68;;
36211;SDS011;22247;48.586;13.492;2023-11-21T09:47:53;20.45;;;8.55;;
36211;SDS011;22247;48.586;13.492;2023-11-21T09:50:22;20.67;;;8.80;;
36211;SDS011;22247;48.586;13.492;2023-11-21T09:55:34;19.98;;;8.35;;
36211;SDS011;22247;48.586;13.492;2023-11-21T09:58:00;18.77;;;8.00;;
36211;SDS011;22247;48.586;13.492;2023-11-21T10:00:25;16.80;;;7.88;;
36211;SDS011;22247;48.586;13.492;2023-11-21T10:02:51;18.17;;;8.07;;
36211;SDS011;22247;48.586;13.492;2023-11-21T10:05:17;20.95;;;7.85;;
36211;SDS011;22247;48.586;13.492;2023-11-21T10:07:43;20.88;;;7.65;;
36211;SDS011;22247;48.586;13.492;2023-11-21T10:10:09;16.60;;;7.10;;
36211;SDS011;22247;48.586;13.492;2023-11-21T10:12:34;13.50;;;6.45;;
36211;SDS011;22247;48.586;13.492;2023-11-21T10:15:02;14.98;;;6.50;;
36211;SDS011;22247;48.586;13.492;2023-11-21T10:17:30;17.10;;;6.60;;
36211;SDS011;22247;48.586;13.492;2023-11-21T10:20:01;21.10;;;6.93;;
36211;SDS011;22247;48.586;13.492;2023-11-21T10:22:30;18.38;;;6.70;;
36211;SDS011;22247;48.586;13.492;2023-11-21T10:24:55;14.23;;;6.40;;
36211;SDS011;22247;48.586;13.492;2023-11-21T10:29:45;19.75;;;7.55;;
36211;SDS011;22247;48.586;13.492;2023-11-21T10:32:10;20.35;;;6.43;;
36211;SDS011;22247;48.586;13.492;2023-11-21T10:34:36;15.27;;;7.60;;
36211;SDS011;22247;48.586;13.492;2023-11-21T10:37:11;17.85;;;8.10;;
36211;SDS011;22247;48.586;13.492;2023-11-21T10:39:37;22.27;;;8.57;;
36211;SDS011;22247;48.586;13.492;2023-11-21T10:42:03;16.58;;;7.95;;
36211;SDS011;22247;48.586;13.492;2023-11-21T10:44:30;17.25;;;8.25;;
36211;SDS011;22247;48.586;13.492;2023-11-21T10:46:56;19.83;;;8.30;;
36211;SDS011;22247;48.586;13.492;2023-11-21T10:49:21;13.73;;;8.18;;
36211;SDS011;22247;48.586;13.492;2023-11-21T10:51:48;14.02;;;7.43;;
36211;SDS011;22247;48.586;13.492;2023-11-21T10:54:18;18.90;;;7.45;;
36211;SDS011;22247;48.586;13.492;2023-11-21T10:56:44;21.38;;;7.28;;
36211;SDS011;22247;48.586;13.492;2023-11-21T10:59:10;16.52;;;6.60;;
36211;SDS011;22247;48.586;13.492;2023-11-21T11:01:38;13.63;;;6.25;;
36211;SDS011;22247;48.586;13.492;2023-11-21T11:06:28;14.57;;;6.05;;
36211;SDS011;22247;48.586;13.492;2023-11-21T11:08:56;13.90;;;5.88;;
36211;SDS011;22247;48.586;13.492;2023-11-21T11:11:21;12.85;;;5.43;;
36211;SDS011;22247;48.586;13.492;2023-11-21T11:16:12;8.00;;;3.80;;
36211;SDS011;22247;48.586;13.492;2023-11-21T11:18:41;12.90;;;4.32;;
36211;SDS011;22247;48.586;13.492;2023-11-21T11:21:27;8.93;;;4.13;;
36211;SDS011;22247;48.586;13.492;2023-11-21T11:24:05;12.23;;;5.10;;
36211;SDS011;22247;48.586;13.492;2023-11-21T11:26:57;8.27;;;4.45;;
36211;SDS011;22247;48.586;13.492;2023-11-21T11:29:35;12.05;;;4.35;;
36211;SDS011;22247;48.586;13.492;2023-11-21T11:32:16;7.32;;;3.92;;
36211;SDS011;22247;48.586;13.492;2023-11-21T11:34:50;9.70;;;4.40;;
36211;SDS011;22247;48.586;13.492;2023-11-21T11:37:18;14.73;;;5.18;;
36211;SDS011;22247;48.586;13.492;2023-11-21T11:42:13;13.18;;;3.72;;
36211;SDS011;22247;48.586;13.492;2023-11-21T11:47:13;8.57;;;3.83;;
36211;SDS011;22247;48.586;13.492;2023-11-21T11:49:49;11.00;;;4.00;;
36211;SDS011;22247;48.586;13.492;2023-11-21T11:52:38;7.60;;;3.75;;
36211;SDS011;22247;48.586;13.492;2023-11-21T11:55:07;12.45;;;5.38;;
36211;SDS011;22247;48.586;13.492;2023-11-21T11:57:38;9.43;;;3.90;;
36211;SDS011;22247;48.586;13.492;2023-11-21T12:00:07;10.52;;;4.38;;
36211;SDS011;22247;48.586;13.492;2023-11-21T12:02:38;12.23;;;3.78;;
36211;SDS011;22247;48.586;13.492;2023-11-21T12:05:16;7.70;;;3.55;;
36211;SDS011;22247;48.586;13.492;2023-11-21T12:07:45;6.03;;;3.45;;
36211;SDS011;22247;48.586;13.492;2023-11-21T12:10:14;8.95;;;3.63;;
36211;SDS011;22247;48.586;13.492;2023-11-21T12:12:42;10.93;;;4.07;;
36211;SDS011;22247;48.586;13.492;2023-11-21T12:15:08;5.78;;;3.28;;
36211;SDS011;22247;48.586;13.492;2023-11-21T12:17:37;8.90;;;3.45;;
36211;SDS011;22247;48.586;13.492;2023-11-21T12:20:03;8.75;;;3.70;;
36211;SDS011;22247;48.586;13.492;2023-11-21T12:22:38;9.85;;;3.45;;
36211;SDS011;22247;48.586;13.492;2023-11-21T12:25:03;8.95;;;3.45;;
36211;SDS011;22247;48.586;13.492;2023-11-21T12:27:28;9.00;;;3.33;;
36211;SDS011;22247;48.586;13.492;2023-11-21T12:29:54;6.47;;;3.05;;
36211;SDS011;22247;48.586;13.492;2023-11-21T12:32:20;7.63;;;3.33;;
36211;SDS011;22247;48.586;13.492;2023-11-21T12:34:45;10.45;;;4.15;;
36211;SDS011;22247;48.586;13.492;2023-11-21T12:37:10;10.82;;;4.28;;
36211;SDS011;22247;48.586;13.492;2023-11-21T12:39:36;11.80;;;4.38;;
36211;SDS011;22247;48.586;13.492;2023-11-21T12:44:26;7.63;;;3.38;;
36211;SDS011;22247;48.586;13.492;2023-11-21T12:46:51;7.03;;;3.15;;
36211;SDS011;22247;48.586;13.492;2023-11-21T12:49:17;7.38;;;3.42;;
36211;SDS011;22247;48.586;13.492;2023-11-21T12:51:43;8.02;;;3.40;;
36211;SDS011;22247;48.586;13.492;2023-11-21T12:54:08;8.93;;;3.30;;
36211;SDS011;22247;48.586;13.492;2023-11-21T12:58:59;8.75;;;3.38;;
36211;SDS011;22247;48.586;13.492;2023-11-21T13:01:28;8.57;;;3.03;;
36211;SDS011;22247;48.586;13.492;2023-11-21T13:06:18;10.15;;;3.30;;
36211;SDS011;22247;48.586;13.492;2023-11-21T13:08:45;8.43;;;3.08;;
36211;SDS011;22247;48.586;13.492;2023-11-21T13:11:16;11.43;;;3.35;;
36211;SDS011;22247;48.586;13.492;2023-11-21T13:13:42;7.85;;;3.45;;
36211;SDS011;22247;48.586;13.492;2023-11-21T13:16:10;7.38;;;2.60;;
36211;SDS011;22247;48.586;13.492;2023-11-21T13:21:04;9.45;;;2.90;;
36211;SDS011;22247;48.586;13.492;2023-11-21T13:23:41;10.32;;;2.70;;
36211;SDS011;22247;48.586;13.492;2023-11-21T13:26:07;8.05;;;3.38;;
36211;SDS011;22247;48.586;13.492;2023-11-21T13:28:35;6.65;;;2.92;;
36211;SDS011;22247;48.586;13.492;2023-11-21T13:31:01;5.38;;;3.13;;
36211;SDS011;22247;48.586;13.492;2023-11-21T13:33:33;7.53;;;2.97;;
36211;SDS011;22247;48.586;13.492;2023-11-21T13:36:01;9.52;;;2.78;;
36211;SDS011;22247;48.586;13.492;2023-11-21T13:38:31;6.30;;;2.95;;
36211;SDS011;22247;48.586;13.492;2023-11-21T13:40:57;6.13;;;2.83;;
36211;SDS011;22247;48.586;13.492;2023-11-21T13:43:23;8.02;;;3.42;;
36211;SDS011;22247;48.586;13.492;2023-11-21T13:45:49;8.10;;;3.20;;
36211;SDS011;22247;48.586;13.492;2023-11-21T13:48:33;13.27;;;2.95;;
36211;SDS011;22247;48.586;13.492;2023-11-21T13:51:06;6.32;;;2.92;;
36211;SDS011;22247;48.586;13.492;2023-11-21T13:53:41;11.75;;;3.72;;
36211;SDS011;22247;48.586;13.492;2023-11-21T13:56:06;9.18;;;2.67;;
36211;SDS011;22247;48.586;13.492;2023-11-21T13:58:32;6.05;;;3.17;;
36211;SDS011;22247;48.586;13.492;2023-11-21T14:01:17;8.70;;;2.88;;
36211;SDS011;22247;48.586;13.492;2023-11-21T14:03:54;11.90;;;3.83;;
36211;SDS011;22247;48.586;13.492;2023-11-21T14:06:25;7.47;;;3.10;;
36211;SDS011;22247;48.586;13.492;2023-11-21T14:08:58;12.85;;;6.45;;
36211;SDS011;22247;48.586;13.492;2023-11-21T14:11:29;14.95;;;6.10;;
36211;SDS011;22247;48.586;13.492;2023-11-21T14:13:54;10.02;;;4.25;;
36211;SDS011;22247;48.586;13.492;2023-11-21T14:16:19;8.93;;;4.20;;
36211;SDS011;22247;48.586;13.492;2023-11-21T14:18:45;9.48;;;3.45;;
36211;SDS011;22247;48.586;13.492;2023-11-21T14:21:36;11.07;;;3.67;;
36211;SDS011;22247;48.586;13.492;2023-11-21T14:24:02;8.88;;;3.78;;
36211;SDS011;22247;48.586;13.492;2023-11-21T14:26:31;12.05;;;3.80;;
36211;SDS011;22247;48.586;13.492;2023-11-21T14:31:21;8.32;;;3.50;;
36211;SDS011;22247;48.586;13.492;2023-11-21T14:33:47;10.98;;;4.18;;
36211;SDS011;22247;48.586;13.492;2023-11-21T14:36:13;8.05;;;3.85;;
36211;SDS011;22247;48.586;13.492;2023-11-21T14:38:41;8.27;;;3.63;;
36211;SDS011;22247;48.586;13.492;2023-11-21T14:41:09;8.50;;;4.07;;
36211;SDS011;22247;48.586;13.492;2023-11-21T14:43:35;10.73;;;3.33;;
36211;SDS011;22247;48.586;13.492;2023-11-21T14:46:01;16.00;;;5.13;;
36211;SDS011;22247;48.586;13.492;2023-11-21T14:48:34;14.57;;;4.25;;
36211;SDS011;22247;48.586;13.492;2023-11-21T14:51:11;10.65;;;4.10;;
36211;SDS011;22247;48.586;13.492;2023-11-21T14:53:39;10.65;;;4.50;;
36211;SDS011;22247;48.586;13.492;2023-11-21T14:56:17;15.18;;;4.80;;
36211;SDS011;22247;48.586;13.492;2023-11-21T14:58:50;10.88;;;4.80;;
36211;SDS011;22247;48.586;13.492;2023-11-21T15:01:15;12.57;;;5.18;;
36211;SDS011;22247;48.586;13.492;2023-11-21T15:06:18;11.30;;;4.93;;
36211;SDS011;22247;48.586;13.492;2023-11-21T15:08:44;9.13;;;5.28;;
36211;SDS011;22247;48.586;13.492;2023-11-21T15:11:17;8.27;;;4.82;;
36211;SDS011;22247;48.586;13.492;2023-11-21T15:13:43;12.30;;;4.40;;
36211;SDS011;22247;48.586;13.492;2023-11-21T15:16:08;8.32;;;3.90;;
36211;SDS011;22247;48.586;13.492;2023-11-21T15:18:36;12.82;;;4.90;;
36211;SDS011;22247;48.586;13.492;2023-11-21T15:21:02;12.43;;;4.97;;
36211;SDS011;22247;48.586;13.492;2023-11-21T15:23:27;17.25;;;4.15;;
36211;SDS011;22247;48.586;13.492;2023-11-21T15:25:54;9.18;;;3.88;;
36211;SDS011;22247;48.586;13.492;2023-11-21T15:30:44;9.73;;;5.32;;
36211;SDS011;22247;48.586;13.492;2023-11-21T15:33:13;8.23;;;4.53;;
36211;SDS011;22247;48.586;13.492;2023-11-21T15:35:40;10.23;;;3.95;;
36211;SDS011;22247;48.586;13.492;2023-11-21T15:38:08;9.13;;;4.15;;
36211;SDS011;22247;48.586;13.492;2023-11-21T15:42:58;10.50;;;4.40;;
36211;SDS011;22247;48.586;13.492;2023-11-21T15:45:23;9.27;;;4.47;;
36211;SDS011;22247;48.586;13.492;2023-11-21T15:47:49;12.18;;;6.13;;
36211;SDS011;22247;48.586;13.492;2023-11-21T15:50:15;8.90;;;3.65;;
36211;SDS011;22247;48.586;13.492;2023-11-21T15:55:07;11.45;;;4.75;;